Time;durP1;ratioP1;P1;durP2;ratioP2;P2;SDS_P1;SDS_P2;PMS_P1;PMS_P2;Temp;Humidity;BMP_temperature;BMP_pressure;BME280_temperature;BME280_humidity;BME280_pressure;Samples;Min_cycle;Max_cycle;Signal;HPM_P1;HPM_P2
2021/12/06 00:01:30;;;;;;;1.80;1.60;;;1.40;99.90;;;;;;5126263;28;20207;-60
2021/12/06 00:04:00;;;;;;;3.60;2.23;;;1.40;99.90;;;;;;5126609;28;20179;-59
2021/12/06 00:06:30;;;;;;;2.17;1.70;;;1.40;99.90;;;;;;5125952;28;20613;-60
2021/12/06 00:08:57;;;;;;;2.10;1.63;;;1.40;99.90;;;;;;5125300;28;20295;-60
2021/12/06 00:11:24;;;;;;;3.03;1.97;;;1.40;99.90;;;;;;5126021;28;20290;-60
2021/12/06 00:13:51;;;;;;;4.47;2.30;;;1.30;99.90;;;;;;5125336;28;20286;-59
2021/12/06 00:16:22;;;;;;;1.80;1.40;;;1.20;99.90;;;;;;5126077;28;20196;-60
2021/12/06 00:18:50;;;;;;;2.20;1.70;;;1.30;99.90;;;;;;5126043;28;20204;-60
2021/12/06 00:21:18;;;;;;;3.40;1.90;;;1.20;99.90;;;;;;5125522;28;20230;-60
2021/12/06 00:23:45;;;;;;;3.80;2.03;;;1.20;99.90;;;;;;5124962;28;20207;-59
2021/12/06 00:26:12;;;;;;;7.40;3.10;;;1.20;99.90;;;;;;5126140;28;20291;-60
2021/12/06 00:28:40;;;;;;;2.80;2.03;;;1.20;99.90;;;;;;5125185;28;20219;-59
2021/12/06 00:31:07;;;;;;;4.23;2.10;;;1.20;99.90;;;;;;5125766;28;20207;-59
2021/12/06 00:33:36;;;;;;;3.33;2.23;;;1.20;99.90;;;;;;5125963;28;20199;-60
2021/12/06 00:36:06;;;;;;;3.10;2.40;;;1.20;99.90;;;;;;5125900;28;20286;-59
2021/12/06 00:38:35;;;;;;;3.37;2.97;;;1.30;99.90;;;;;;5124897;28;20225;-60
2021/12/06 00:41:04;;;;;;;4.10;2.40;;;1.40;99.90;;;;;;5125523;28;20234;-60
2021/12/06 00:43:31;;;;;;;3.53;2.47;;;1.40;99.90;;;;;;5125240;28;20303;-60
2021/12/06 00:45:58;;;;;;;1.73;1.40;;;1.50;99.90;;;;;;5125762;28;20267;-59
2021/12/06 00:48:25;;;;;;;4.13;2.20;;;1.50;99.90;;;;;;5125341;28;20204;-59
2021/12/06 00:50:53;;;;;;;1.90;1.40;;;1.50;99.90;;;;;;5125185;28;20259;-59
2021/12/06 00:53:20;;;;;;;2.67;1.37;;;1.50;99.90;;;;;;5124440;28;20298;-60
2021/12/06 00:55:47;;;;;;;1.50;1.10;;;1.50;99.90;;;;;;5125797;28;20219;-60
2021/12/06 00:58:14;;;;;;;1.33;1.13;;;1.60;99.90;;;;;;5125040;28;20227;-60
2021/12/06 01:00:44;;;;;;;1.43;0.90;;;1.60;99.90;;;;;;5124634;28;20286;-59
2021/12/06 01:03:14;;;;;;;3.23;1.93;;;1.50;99.90;;;;;;5125786;28;20291;-59
2021/12/06 01:05:43;;;;;;;2.27;1.50;;;1.50;99.90;;;;;;5125235;28;20299;-60
2021/12/06 01:08:11;;;;;;;4.53;1.87;;;1.50;99.90;;;;;;5124882;28;20238;-60
2021/12/06 01:10:40;;;;;;;2.70;1.40;;;1.50;99.90;;;;;;5124924;28;20214;-60
2021/12/06 01:13:07;;;;;;;2.13;1.40;;;1.40;99.90;;;;;;5125733;28;20203;-60
2021/12/06 01:15:36;;;;;;;2.03;1.23;;;1.50;99.90;;;;;;5124730;28;20210;-60
2021/12/06 01:18:04;;;;;;;2.10;1.27;;;1.50;99.90;;;;;;5125613;28;20204;-59
2021/12/06 01:20:39;;;;;;;1.70;1.23;;;1.50;99.90;;;;;;5128067;28;20215;-60
2021/12/06 01:23:10;;;;;;;1.23;1.13;;;1.50;99.90;;;;;;5129236;28;20725;-60
2021/12/06 01:25:47;;;;;;;2.80;1.40;;;1.60;99.90;;;;;;5128939;28;20184;-60
2021/12/06 01:31:04;;;;;;;3.20;1.80;;;1.70;99.90;;;;;;5129492;28;20265;-60
2021/12/06 01:33:52;;;;;;;2.13;1.70;;;1.70;99.90;;;;;;5129360;28;20198;-59
2021/12/06 01:39:16;;;;;;;7.40;2.50;;;1.60;99.90;;;;;;5128486;28;20248;-60
2021/12/06 01:41:50;;;;;;;3.37;2.20;;;1.50;99.90;;;;;;5128795;28;20319;-60
2021/12/06 01:44:18;;;;;;;3.33;2.10;;;1.50;99.90;;;;;;5128080;28;20267;-60
2021/12/06 01:46:49;;;;;;;3.67;2.10;;;1.60;99.90;;;;;;5129028;28;20234;-60
2021/12/06 01:49:17;;;;;;;3.80;2.13;;;1.70;99.90;;;;;;5128238;28;20208;-60
2021/12/06 01:51:46;;;;;;;4.13;2.20;;;1.70;99.90;;;;;;5128569;28;20200;-60
2021/12/06 01:54:15;;;;;;;2.50;2.00;;;1.80;99.90;;;;;;5127879;28;20732;-59
2021/12/06 01:56:42;;;;;;;1.90;1.70;;;1.80;99.90;;;;;;5128976;28;20206;-60
2021/12/06 01:59:10;;;;;;;2.63;1.63;;;1.80;99.90;;;;;;5127657;28;20318;-59
2021/12/06 02:01:37;;;;;;;2.03;1.50;;;1.80;99.90;;;;;;5128635;28;20216;-60
2021/12/06 02:04:06;;;;;;;2.90;1.73;;;1.90;99.90;;;;;;5128423;28;20267;-60
2021/12/06 02:06:34;;;;;;;2.27;1.50;;;1.80;99.90;;;;;;5128590;28;20267;-60
2021/12/06 02:09:01;;;;;;;1.50;1.40;;;1.80;99.90;;;;;;5127916;28;20211;-59
2021/12/06 02:11:31;;;;;;;2.60;1.43;;;1.80;99.90;;;;;;5128161;28;20224;-60
2021/12/06 02:14:04;;;;;;;2.07;1.53;;;1.80;99.90;;;;;;5127846;28;20184;-59
2021/12/06 02:16:40;;;;;;;2.07;1.80;;;1.90;99.90;;;;;;5128349;28;20199;-60
2021/12/06 02:19:09;;;;;;;2.20;1.50;;;1.90;99.90;;;;;;5128125;28;20200;-60
2021/12/06 02:21:41;;;;;;;2.03;1.73;;;1.90;99.90;;;;;;5128254;28;20585;-60
2021/12/06 02:24:10;;;;;;;2.00;1.40;;;1.90;99.90;;;;;;5127170;28;20204;-59
2021/12/06 02:26:39;;;;;;;1.33;1.23;;;1.90;99.90;;;;;;5128068;28;20206;-60
2021/12/06 02:29:06;;;;;;;3.00;1.67;;;1.80;99.90;;;;;;5127281;28;20239;-59
2021/12/06 02:31:34;;;;;;;3.33;1.50;;;1.90;99.90;;;;;;5127332;28;20199;-59
2021/12/06 02:34:01;;;;;;;3.93;1.70;;;1.90;99.90;;;;;;5127935;28;20203;-60
2021/12/06 02:36:30;;;;;;;3.03;1.43;;;1.90;99.90;;;;;;5128218;28;20199;-59
2021/12/06 02:38:58;;;;;;;2.00;1.50;;;1.90;99.90;;;;;;5127036;28;20235;-59
2021/12/06 02:41:26;;;;;;;2.93;1.30;;;1.80;99.90;;;;;;5127363;28;20557;-60
2021/12/06 02:43:53;;;;;;;2.00;1.43;;;1.80;99.90;;;;;;5127377;28;20210;-60
2021/12/06 02:46:21;;;;;;;1.90;1.60;;;1.80;99.90;;;;;;5127792;28;20195;-60
2021/12/06 02:48:48;;;;;;;2.53;1.40;;;1.80;99.90;;;;;;5127701;28;20203;-60
2021/12/06 02:51:15;;;;;;;1.73;1.53;;;1.90;99.90;;;;;;5127777;28;20283;-59
2021/12/06 02:53:42;;;;;;;1.67;1.43;;;1.90;99.90;;;;;;5126425;28;20204;-59
2021/12/06 02:56:18;;;;;;;2.97;1.83;;;2.00;99.90;;;;;;5127718;28;20206;-60
2021/12/06 02:58:56;;;;;;;1.37;1.23;;;2.00;99.90;;;;;;5126562;28;20227;-60
2021/12/06 03:01:28;;;;;;;1.93;1.43;;;2.00;99.90;;;;;;5127434;28;20220;-60
2021/12/06 03:03:55;;;;;;;3.83;2.00;;;2.00;99.90;;;;;;5127630;28;20184;-60
2021/12/06 03:06:22;;;;;;;2.67;2.00;;;2.00;99.90;;;;;;5127648;28;20289;-59
2021/12/06 03:08:56;;;;;;;1.43;1.33;;;2.00;99.90;;;;;;5127050;28;20206;-60
2021/12/06 03:11:29;;;;;;;1.93;1.50;;;2.00;99.90;;;;;;5127166;28;20207;-60
2021/12/06 03:13:57;;;;;;;1.83;1.50;;;2.00;99.90;;;;;;5126740;28;20191;-60
2021/12/06 03:16:24;;;;;;;2.63;1.70;;;1.90;99.90;;;;;;5126992;28;20196;-60
2021/12/06 03:18:54;;;;;;;1.90;1.57;;;2.00;99.90;;;;;;5126944;28;20287;-60
2021/12/06 03:21:22;;;;;;;2.07;1.57;;;2.00;99.90;;;;;;5126723;28;20220;-59
2021/12/06 03:23:49;;;;;;;1.93;1.60;;;2.00;99.90;;;;;;5125877;28;20203;-59
2021/12/06 03:26:17;;;;;;;4.13;2.47;;;1.90;99.90;;;;;;5125141;28;20291;-60
2021/12/06 03:28:46;;;;;;;3.13;2.13;;;1.90;99.90;;;;;;5111103;28;20205;-59
2021/12/06 03:31:14;;;;;;;3.80;2.00;;;1.90;99.90;;;;;;5126974;28;20658;-60
2021/12/06 03:33:42;;;;;;;3.50;1.63;;;2.00;99.90;;;;;;5127053;28;20214;-59
2021/12/06 03:36:11;;;;;;;3.43;2.00;;;2.00;99.90;;;;;;5126573;28;20638;-60
2021/12/06 03:38:39;;;;;;;3.13;2.00;;;1.90;99.90;;;;;;5118753;28;20201;-60
2021/12/06 03:41:07;;;;;;;4.17;1.87;;;2.00;99.90;;;;;;5105811;28;20220;-60
2021/12/06 03:43:35;;;;;;;3.67;2.30;;;2.00;99.90;;;;;;5105187;28;20271;-60
2021/12/06 03:46:04;;;;;;;3.53;2.03;;;1.80;99.90;;;;;;5106383;28;20208;-60
2021/12/06 03:48:31;;;;;;;5.07;2.07;;;1.70;99.90;;;;;;5118155;28;20267;-60
2021/12/06 03:50:58;;;;;;;5.40;2.37;;;1.40;99.90;;;;;;5125954;28;20217;-59
2021/12/06 03:53:25;;;;;;;8.40;3.27;;;1.70;99.90;;;;;;5124771;28;20207;-59
2021/12/06 03:55:52;;;;;;;7.73;2.60;;;1.80;99.90;;;;;;5126449;28;20278;-60
2021/12/06 03:58:19;;;;;;;2.33;1.50;;;1.80;99.90;;;;;;5126181;28;20300;-60
2021/12/06 04:00:46;;;;;;;3.73;1.73;;;2.00;99.90;;;;;;5125326;28;20215;-60
2021/12/06 04:03:15;;;;;;;1.93;1.60;;;2.00;99.90;;;;;;5126352;28;20310;-60
2021/12/06 04:05:42;;;;;;;2.70;1.33;;;2.00;99.90;;;;;;5126143;28;20229;-60
2021/12/06 04:08:09;;;;;;;4.50;2.13;;;2.00;99.90;;;;;;5125757;28;20211;-60
2021/12/06 04:10:36;;;;;;;4.43;2.83;;;1.90;99.90;;;;;;5125880;28;20643;-60
2021/12/06 04:13:03;;;;;;;3.00;2.10;;;1.80;99.90;;;;;;5128625;27;20646;-60
2021/12/06 04:15:30;;;;;;;4.00;2.20;;;1.80;99.90;;;;;;5134762;27;20290;-59
2021/12/06 04:17:58;;;;;;;2.97;2.00;;;1.70;99.90;;;;;;5140430;27;20187;-59
2021/12/06 04:20:27;;;;;;;3.87;1.70;;;1.70;99.90;;;;;;5145882;27;20203;-60
2021/12/06 04:22:54;;;;;;;3.53;2.00;;;1.80;99.90;;;;;;5146141;27;20274;-60
2021/12/06 04:25:21;;;;;;;3.10;1.90;;;1.90;99.90;;;;;;5145749;27;20203;-60
2021/12/06 04:27:54;;;;;;;2.37;1.90;;;2.00;99.90;;;;;;5146444;27;20227;-59
2021/12/06 04:30:22;;;;;;;3.77;2.13;;;2.00;99.90;;;;;;5145456;27;20213;-60
2021/12/06 04:32:50;;;;;;;5.53;2.27;;;2.00;99.90;;;;;;5146493;27;20203;-60
2021/12/06 04:35:17;;;;;;;3.23;1.93;;;2.00;99.90;;;;;;5145851;27;20774;-60
2021/12/06 04:37:45;;;;;;;3.17;1.80;;;2.00;99.90;;;;;;5145891;27;20203;-60
2021/12/06 04:40:13;;;;;;;4.50;2.20;;;2.00;99.90;;;;;;5145928;27;20211;-59
2021/12/06 04:42:40;;;;;;;1.87;1.40;;;2.00;99.90;;;;;;5146371;27;20245;-60
2021/12/06 04:45:08;;;;;;;2.10;1.77;;;2.00;99.90;;;;;;5145488;27;20286;-60
2021/12/06 04:47:35;;;;;;;2.53;1.97;;;2.00;99.90;;;;;;5146392;27;20258;-60
2021/12/06 04:50:02;;;;;;;2.90;2.00;;;2.00;99.90;;;;;;5145806;27;20258;-60
2021/12/06 04:52:29;;;;;;;4.17;2.07;;;2.00;99.90;;;;;;5144908;27;20217;-60
2021/12/06 04:55:00;;;;;;;4.17;2.40;;;2.00;99.90;;;;;;5145431;27;20274;-60
2021/12/06 04:57:31;;;;;;;2.73;1.83;;;1.90;99.90;;;;;;5145868;27;20313;-60
2021/12/06 05:00:01;;;;;;;4.63;2.40;;;1.70;99.90;;;;;;5145299;28;20213;-59
2021/12/06 05:02:32;;;;;;;4.77;2.20;;;1.80;99.90;;;;;;5145706;28;20214;-60
2021/12/06 05:05:03;;;;;;;4.50;2.37;;;1.80;99.90;;;;;;5145469;28;20183;-60
2021/12/06 05:07:37;;;;;;;3.17;1.80;;;1.90;99.90;;;;;;5145336;28;20194;-58
2021/12/06 05:10:08;;;;;;;2.90;2.07;;;2.00;99.90;;;;;;5145547;28;20213;-59
2021/12/06 05:12:35;;;;;;;2.23;1.63;;;2.00;99.90;;;;;;5139971;28;20255;-59
2021/12/06 05:15:03;;;;;;;3.73;2.10;;;2.00;99.90;;;;;;5130991;28;20231;-59
2021/12/06 05:17:30;;;;;;;3.43;2.23;;;1.90;99.90;;;;;;5144933;28;20194;-59
2021/12/06 05:19:57;;;;;;;3.00;2.00;;;1.90;99.90;;;;;;5144772;28;20226;-59
2021/12/06 05:22:25;;;;;;;2.63;1.57;;;2.00;99.90;;;;;;5145228;28;20341;-58
2021/12/06 05:24:52;;;;;;;2.70;2.47;;;2.00;99.90;;;;;;5145289;28;20199;-59
2021/12/06 05:27:26;;;;;;;3.33;1.70;;;2.10;99.90;;;;;;5145850;28;20207;-59
2021/12/06 05:29:58;;;;;;;3.80;2.20;;;2.10;99.90;;;;;;5145135;28;20212;-59
2021/12/06 05:32:26;;;;;;;4.20;2.47;;;2.00;99.90;;;;;;5145486;28;20229;-59
2021/12/06 05:35:00;;;;;;;2.57;1.67;;;2.00;99.90;;;;;;5145683;28;20228;-59
2021/12/06 05:37:27;;;;;;;3.07;2.00;;;1.90;99.90;;;;;;5145344;28;20267;-58
2021/12/06 05:39:54;;;;;;;2.80;2.00;;;1.90;99.90;;;;;;5145430;28;20664;-59
2021/12/06 05:42:23;;;;;;;4.83;2.13;;;1.90;99.90;;;;;;5145680;28;20309;-59
2021/12/06 05:44:50;;;;;;;3.60;2.40;;;2.00;99.90;;;;;;5145325;28;20202;-58
2021/12/06 05:47:17;;;;;;;3.63;2.40;;;2.00;99.90;;;;;;5145820;28;20226;-59
2021/12/06 05:49:44;;;;;;;3.43;2.27;;;1.90;99.90;;;;;;5145363;28;20290;-59
2021/12/06 05:52:11;;;;;;;3.50;2.30;;;1.90;99.90;;;;;;5134217;28;20220;-59
2021/12/06 05:54:38;;;;;;;4.27;2.17;;;1.90;99.90;;;;;;5111678;28;20255;-58
2021/12/06 05:57:07;;;;;;;3.83;2.20;;;2.00;99.90;;;;;;5116729;28;20411;-58
2021/12/06 05:59:35;;;;;;;4.17;1.70;;;1.90;99.90;;;;;;5124122;28;20204;-59
2021/12/06 06:02:02;;;;;;;5.07;3.20;;;1.90;99.90;;;;;;5124761;28;20211;-59
2021/12/06 06:04:29;;;;;;;4.67;3.23;;;1.90;99.90;;;;;;5124711;28;20287;-60
2021/12/06 06:06:56;;;;;;;5.37;3.37;;;1.80;99.90;;;;;;5128304;28;20227;-60
2021/12/06 06:09:23;;;;;;;5.03;3.87;;;1.90;99.90;;;;;;5127872;28;20218;-59
2021/12/06 06:11:50;;;;;;;5.97;3.83;;;1.90;99.90;;;;;;5128569;28;20200;-60
2021/12/06 06:14:17;;;;;;;5.43;3.47;;;2.00;99.90;;;;;;5127887;28;20202;-60
2021/12/06 06:16:51;;;;;;;6.30;3.60;;;2.00;99.90;;;;;;5128469;28;20207;-59
2021/12/06 06:19:20;;;;;;;5.53;3.57;;;2.00;99.90;;;;;;5128319;28;20200;-59
2021/12/06 06:21:47;;;;;;;6.13;3.90;;;2.00;99.90;;;;;;5119919;28;20240;-60
2021/12/06 06:24:14;;;;;;;6.23;3.83;;;1.90;99.90;;;;;;5129984;27;20267;-60
2021/12/06 06:26:40;;;;;;;9.13;3.83;;;2.00;99.90;;;;;;5137473;27;20258;-60
2021/12/06 06:29:08;;;;;;;7.73;3.63;;;1.90;99.90;;;;;;5138429;27;20199;-60
2021/12/06 06:31:35;;;;;;;7.33;3.70;;;2.00;99.90;;;;;;5127648;28;20267;-60
2021/12/06 06:34:03;;;;;;;6.07;3.00;;;2.00;99.90;;;;;;5127817;28;20286;-60
2021/12/06 06:36:30;;;;;;;5.97;3.20;;;1.90;99.90;;;;;;5128106;28;20228;-61
2021/12/06 06:38:57;;;;;;;7.33;2.90;;;1.80;99.90;;;;;;5127385;28;20232;-60
2021/12/06 06:41:25;;;;;;;4.73;2.97;;;1.90;99.90;;;;;;5127542;28;20226;-62
2021/12/06 06:43:52;;;;;;;5.03;3.60;;;2.00;99.90;;;;;;5127297;28;20207;-61
2021/12/06 06:46:18;;;;;;;6.13;3.27;;;2.00;99.90;;;;;;5139536;27;20207;-60
2021/12/06 06:48:45;;;;;;;4.93;2.50;;;2.10;99.90;;;;;;5133115;27;20263;-61
2021/12/06 06:51:14;;;;;;;6.23;3.27;;;2.10;99.90;;;;;;5127462;28;20292;-61
2021/12/06 06:53:41;;;;;;;6.67;4.00;;;2.00;99.90;;;;;;5125772;28;20302;-62
2021/12/06 06:56:07;;;;;;;4.70;3.00;;;1.90;99.90;;;;;;5127690;28;20764;-60
2021/12/06 06:58:34;;;;;;;5.23;2.70;;;1.80;99.90;;;;;;5126691;28;20291;-60
2021/12/06 07:01:01;;;;;;;3.70;3.00;;;1.90;99.90;;;;;;5127367;28;20235;-61
2021/12/06 07:03:31;;;;;;;5.17;3.23;;;1.90;99.90;;;;;;5127553;28;20295;-60
2021/12/06 07:05:58;;;;;;;6.43;3.70;;;1.80;99.90;;;;;;5127492;28;20219;-60
2021/12/06 07:08:27;;;;;;;6.00;3.10;;;1.80;99.90;;;;;;5126746;28;20609;-60
2021/12/06 07:10:54;;;;;;;5.37;3.30;;;1.80;99.90;;;;;;5127231;28;20326;-60
2021/12/06 07:13:22;;;;;;;4.03;2.60;;;1.90;99.90;;;;;;5127066;28;20195;-61
2021/12/06 07:15:50;;;;;;;4.67;2.63;;;2.00;99.90;;;;;;5127134;28;20262;-61
2021/12/06 07:18:16;;;;;;;4.40;3.13;;;2.20;99.90;;;;;;5127476;28;20746;-61
2021/12/06 07:20:44;;;;;;;5.50;3.57;;;2.00;99.90;;;;;;5126666;28;20207;-60
2021/12/06 07:23:11;;;;;;;4.13;2.60;;;1.90;99.90;;;;;;5126393;28;20897;-61
2021/12/06 07:25:40;;;;;;;3.63;2.30;;;1.90;99.90;;;;;;5126808;28;20224;-61
2021/12/06 07:28:08;;;;;;;5.40;3.00;;;2.00;99.90;;;;;;5126944;28;20209;-64
2021/12/06 07:30:35;;;;;;;4.80;2.40;;;2.00;99.90;;;;;;5128447;27;20225;-61
2021/12/06 07:33:02;;;;;;;2.93;2.37;;;2.00;99.90;;;;;;5137995;27;20195;-63
2021/12/06 07:35:29;;;;;;;3.97;2.40;;;2.10;99.90;;;;;;5136201;27;20199;-63
2021/12/06 07:37:56;;;;;;;3.47;2.30;;;2.00;99.90;;;;;;5135852;27;20202;-64
2021/12/06 07:40:24;;;;;;;4.73;2.23;;;2.00;99.90;;;;;;5128933;27;20625;-63
2021/12/06 07:42:52;;;;;;;5.07;3.07;;;2.10;99.90;;;;;;5126628;28;20246;-64
2021/12/06 07:45:19;;;;;;;3.47;2.73;;;2.00;99.90;;;;;;5125908;28;20231;-64
2021/12/06 07:47:47;;;;;;;4.87;2.63;;;2.00;99.90;;;;;;5126896;28;20237;-64
2021/12/06 07:50:16;;;;;;;7.40;3.20;;;2.00;99.90;;;;;;5126092;28;20215;-65
2021/12/06 07:52:47;;;;;;;4.30;2.80;;;2.10;99.90;;;;;;5125758;28;20287;-64
2021/12/06 07:55:17;;;;;;;6.43;2.97;;;2.20;99.90;;;;;;5125843;28;20267;-63
2021/12/06 07:57:44;;;;;;;3.10;2.67;;;2.10;99.90;;;;;;5126234;28;20728;-63
2021/12/06 08:00:16;;;;;;;4.53;3.33;;;2.10;99.90;;;;;;5125490;28;20232;-60
2021/12/06 08:02:43;;;;;;;8.07;3.63;;;2.00;99.90;;;;;;5126053;28;20239;-63
2021/12/06 08:05:30;;;;;;;5.23;3.30;;;2.00;99.90;;;;;;5126186;28;20205;-63
2021/12/06 08:07:58;;;;;;;4.50;2.30;;;2.10;99.90;;;;;;5125871;28;20203;-63
2021/12/06 08:10:25;;;;;;;4.87;2.33;;;2.20;99.90;;;;;;5125809;28;20219;-62
2021/12/06 08:12:52;;;;;;;5.30;2.43;;;2.20;99.90;;;;;;5125704;28;20745;-65
2021/12/06 08:15:20;;;;;;;4.47;2.63;;;2.30;99.90;;;;;;5125269;27;20200;-64
2021/12/06 08:17:47;;;;;;;4.07;2.40;;;2.30;99.90;;;;;;5126035;28;20263;-64
2021/12/06 08:20:14;;;;;;;6.53;2.83;;;2.40;99.90;;;;;;5125718;28;20211;-64
2021/12/06 08:22:41;;;;;;;12.30;4.83;;;2.40;99.90;;;;;;5125043;28;20223;-61
2021/12/06 08:25:10;;;;;;;4.97;2.90;;;2.40;99.90;;;;;;5125337;28;20202;-63
2021/12/06 08:27:37;;;;;;;5.67;2.93;;;2.40;99.90;;;;;;5125654;28;20242;-60
2021/12/06 08:30:07;;;;;;;8.70;3.37;;;2.40;99.90;;;;;;5124877;28;20246;-62
2021/12/06 08:32:35;;;;;;;6.97;4.43;;;2.40;99.90;;;;;;5125954;28;20195;-63
2021/12/06 08:35:02;;;;;;;8.30;4.33;;;2.50;99.90;;;;;;5129839;27;20286;-63
2021/12/06 08:37:29;;;;;;;9.33;4.63;;;2.60;99.90;;;;;;5138581;27;20203;-63
2021/12/06 08:39:56;;;;;;;11.37;5.07;;;2.60;99.90;;;;;;5125380;28;20203;-63
2021/12/06 08:42:24;;;;;;;25.23;10.87;;;2.60;99.90;;;;;;5125546;28;20216;-62
2021/12/06 08:44:51;;;;;;;15.13;7.77;;;2.50;99.90;;;;;;5125046;28;20238;-63
2021/12/06 08:47:18;;;;;;;19.73;8.83;;;2.60;99.90;;;;;;5125789;28;20211;-63
2021/12/06 08:49:46;;;;;;;13.03;7.17;;;2.60;99.90;;;;;;5125160;28;20238;-63
2021/12/06 08:52:16;;;;;;;13.30;5.70;;;2.60;99.90;;;;;;5125727;28;20228;-63
2021/12/06 08:54:43;;;;;;;10.07;5.17;;;2.60;99.90;;;;;;5124430;28;20242;-68
2021/12/06 08:57:11;;;;;;;6.27;3.90;;;2.60;99.90;;;;;;5125389;28;20208;-63
2021/12/06 08:59:38;;;;;;;5.10;3.50;;;2.60;99.90;;;;;;5124642;28;20238;-63
2021/12/06 09:02:06;;;;;;;5.87;3.80;;;2.60;99.90;;;;;;5125182;28;20255;-67
2021/12/06 09:04:37;;;;;;;6.07;3.60;;;2.60;99.90;;;;;;5125218;28;20196;-63
2021/12/06 09:07:11;;;;;;;5.47;3.57;;;2.60;99.90;;;;;;5125635;28;20200;-63
2021/12/06 09:09:40;;;;;;;10.27;4.87;;;2.50;99.90;;;;;;5124575;28;20206;-64
2021/12/06 09:12:08;;;;;;;8.17;5.27;;;2.40;99.90;;;;;;5125191;28;20203;-63
2021/12/06 09:14:34;;;;;;;8.00;5.00;;;2.40;99.90;;;;;;5124630;28;20239;-63
2021/12/06 09:17:01;;;;;;;7.10;4.60;;;2.40;99.90;;;;;;5125458;28;20235;-61
2021/12/06 09:19:28;;;;;;;9.40;4.80;;;2.40;99.90;;;;;;5125077;28;20242;-61
2021/12/06 09:21:55;;;;;;;5.77;3.67;;;2.40;99.90;;;;;;5124813;28;20207;-61
2021/12/06 09:24:26;;;;;;;6.73;4.47;;;1.70;99.90;;;;;;5124192;28;20242;-61
2021/12/06 09:26:53;;;;;;;5.70;4.23;;;2.30;99.90;;;;;;5125286;28;20518;-62
2021/12/06 09:29:24;;;;;;;5.80;3.70;;;2.30;99.90;;;;;;5124253;28;20210;-62
2021/12/06 09:31:52;;;;;;;7.30;4.10;;;2.40;99.90;;;;;;5125007;28;20235;-62
2021/12/06 09:34:19;;;;;;;5.00;3.33;;;2.40;99.90;;;;;;5125178;28;20199;-62
2021/12/06 09:36:46;;;;;;;8.97;3.70;;;2.40;99.90;;;;;;5125337;28;20230;-61
2021/12/06 09:39:14;;;;;;;7.40;3.80;;;2.40;99.90;;;;;;5124572;28;20314;-61
2021/12/06 09:41:43;;;;;;;7.00;4.03;;;2.50;99.90;;;;;;5128277;28;20223;-62
2021/12/06 09:44:10;;;;;;;6.97;4.10;;;2.50;99.90;;;;;;5128407;28;20252;-63
2021/12/06 09:46:38;;;;;;;7.43;4.40;;;2.50;99.90;;;;;;5129151;28;20223;-62
2021/12/06 09:49:08;;;;;;;7.70;4.13;;;2.50;99.90;;;;;;5128682;28;20235;-62
2021/12/06 09:51:38;;;;;;;7.80;4.43;;;2.50;99.90;;;;;;5128974;27;20208;-62
2021/12/06 09:54:06;;;;;;;7.60;3.73;;;2.50;99.90;;;;;;5127620;28;20235;-63
2021/12/06 09:56:35;;;;;;;5.20;3.50;;;2.50;99.90;;;;;;5129239;28;20228;-62
2021/12/06 09:59:09;;;;;;;5.37;3.40;;;2.50;99.90;;;;;;5127695;28;20230;-62
2021/12/06 10:01:40;;;;;;;4.70;2.70;;;2.50;99.90;;;;;;5128881;28;20200;-62
2021/12/06 10:04:09;;;;;;;5.93;2.97;;;2.60;99.90;;;;;;5128636;28;20230;-62
2021/12/06 10:06:37;;;;;;;3.20;2.27;;;2.70;99.90;;;;;;5128685;28;20200;-62
2021/12/06 10:09:06;;;;;;;4.63;2.83;;;2.70;99.90;;;;;;5127853;28;20229;-62
2021/12/06 10:11:33;;;;;;;5.03;3.20;;;2.70;99.90;;;;;;5128602;28;20246;-62
2021/12/06 10:14:00;;;;;;;5.40;3.37;;;2.80;99.90;;;;;;5127847;28;20192;-61
2021/12/06 10:16:29;;;;;;;7.53;4.17;;;2.90;99.90;;;;;;5128497;28;20223;-61
2021/12/06 10:18:56;;;;;;;6.77;3.40;;;2.90;99.90;;;;;;5128368;28;20706;-61
2021/12/06 10:21:27;;;;;;;4.87;2.87;;;2.90;99.90;;;;;;5130243;27;20191;-64
2021/12/06 10:23:55;;;;;;;3.33;2.63;;;2.90;99.90;;;;;;5127679;27;20852;-60
2021/12/06 10:26:25;;;;;;;6.43;3.07;;;2.80;99.90;;;;;;5146241;27;20190;-60
2021/12/06 10:28:56;;;;;;;2.57;2.30;;;2.80;99.90;;;;;;5148228;27;20195;-60
2021/12/06 10:31:26;;;;;;;2.00;1.70;;;2.90;99.90;;;;;;5148641;27;20234;-61
2021/12/06 10:33:55;;;;;;;3.80;2.20;;;2.90;99.90;;;;;;5148578;27;20238;-61
2021/12/06 10:36:24;;;;;;;1.60;1.50;;;3.00;99.90;;;;;;5148782;27;20206;-60
2021/12/06 10:38:55;;;;;;;1.67;1.53;;;3.00;99.90;;;;;;5147982;27;20214;-60
2021/12/06 10:41:26;;;;;;;1.70;1.60;;;3.10;99.90;;;;;;5148553;27;20210;-60
2021/12/06 10:43:57;;;;;;;2.63;2.40;;;3.10;99.90;;;;;;5147710;27;20207;-60
2021/12/06 10:46:24;;;;;;;4.27;2.80;;;3.20;99.90;;;;;;5148670;27;20206;-60
2021/12/06 10:48:57;;;;;;;2.70;2.20;;;3.20;99.90;;;;;;5148603;27;20235;-60
2021/12/06 10:51:24;;;;;;;2.67;1.80;;;3.20;99.90;;;;;;5147777;27;20205;-61
2021/12/06 10:53:59;;;;;;;4.47;2.40;;;3.20;99.90;;;;;;5147196;27;20203;-60
2021/12/06 10:56:39;;;;;;;2.83;2.10;;;3.30;99.90;;;;;;5148524;27;20515;-60
2021/12/06 10:59:11;;;;;;;1.60;1.43;;;3.30;99.90;;;;;;5147406;27;20222;-61
2021/12/06 11:01:38;;;;;;;2.30;1.80;;;3.30;99.90;;;;;;5148367;27;20221;-61
2021/12/06 11:04:09;;;;;;;3.57;2.00;;;3.40;99.90;;;;;;5147994;27;20246;-61
2021/12/06 11:06:42;;;;;;;2.77;1.90;;;3.40;99.90;;;;;;5148276;27;20262;-61
2021/12/06 11:09:10;;;;;;;1.87;1.60;;;3.40;99.90;;;;;;5147437;27;20199;-61
2021/12/06 11:11:41;;;;;;;2.13;1.33;;;3.50;99.90;;;;;;5147936;27;20270;-60
2021/12/06 11:14:10;;;;;;;2.30;1.60;;;3.50;99.90;;;;;;5147370;27;20207;-60
2021/12/06 11:16:39;;;;;;;5.50;1.40;;;3.60;99.90;;;;;;5148189;27;20206;-60
2021/12/06 11:19:09;;;;;;;2.60;1.50;;;3.60;99.90;;;;;;5147747;27;20195;-60
2021/12/06 11:21:43;;;;;;;2.73;1.70;;;3.60;99.90;;;;;;5147905;27;20195;-60
2021/12/06 11:24:18;;;;;;;2.40;1.60;;;3.70;99.90;;;;;;5146631;27;20268;-60
2021/12/06 11:27:01;;;;;;;4.13;1.80;;;3.70;99.90;;;;;;5147935;27;20213;-60
2021/12/06 11:29:33;;;;;;;2.33;1.50;;;3.70;99.90;;;;;;5133865;27;20294;-62
2021/12/06 11:32:07;;;;;;;2.23;1.37;;;3.70;99.90;;;;;;5105784;28;20311;-63
2021/12/06 11:34:40;;;;;;;2.40;1.33;;;3.70;99.90;;;;;;5105929;28;20223;-62
2021/12/06 11:37:19;;;;;;;2.83;2.00;;;3.80;99.90;;;;;;5106620;28;20243;-62
2021/12/06 11:39:50;;;;;;;2.70;1.63;;;3.80;99.90;;;;;;5105939;28;20236;-62
2021/12/06 11:42:17;;;;;;;4.73;2.10;;;3.80;99.90;;;;;;5106340;28;20204;-62
2021/12/06 11:44:46;;;;;;;3.33;2.50;;;3.90;99.90;;;;;;5105678;28;20215;-61
2021/12/06 11:47:16;;;;;;;4.70;2.57;;;3.90;99.90;;;;;;5106373;28;20729;-62
2021/12/06 11:49:47;;;;;;;4.40;2.70;;;3.90;99.90;;;;;;5106199;28;20208;-62
2021/12/06 11:52:17;;;;;;;4.40;2.70;;;3.80;99.90;;;;;;5106080;28;20270;-62
2021/12/06 11:54:49;;;;;;;5.47;3.87;;;3.80;99.90;;;;;;5105208;28;20208;-62
2021/12/06 11:57:19;;;;;;;7.07;4.83;;;3.80;99.90;;;;;;5105875;28;20244;-62
2021/12/06 11:59:50;;;;;;;5.43;3.37;;;3.80;99.90;;;;;;5105064;28;20315;-61
2021/12/06 12:02:27;;;;;;;5.80;3.90;;;3.90;99.90;;;;;;5105163;28;20208;-60
2021/12/06 12:05:13;;;;;;;3.23;2.70;;;3.90;99.90;;;;;;5122091;27;20211;-59
2021/12/06 12:08:06;;;;;;;4.43;3.20;;;4.00;99.90;;;;;;5142089;27;20199;-60
2021/12/06 12:10:41;;;;;;;9.87;4.27;;;4.10;99.90;;;;;;5132534;27;20634;-59
2021/12/06 12:13:10;;;;;;;5.03;3.37;;;4.20;99.90;;;;;;5134527;27;20258;-59
2021/12/06 12:15:38;;;;;;;2.90;2.33;;;4.30;99.90;;;;;;5135310;27;20621;-60
2021/12/06 12:18:05;;;;;;;4.90;3.43;;;4.40;99.90;;;;;;5137006;27;20195;-59
2021/12/06 12:20:36;;;;;;;4.67;2.70;;;4.40;99.90;;;;;;5131546;27;20192;-60
2021/12/06 12:23:08;;;;;;;4.33;2.47;;;4.50;99.90;;;;;;5135496;27;20226;-60
2021/12/06 12:25:39;;;;;;;3.77;2.40;;;4.60;99.90;;;;;;5134921;27;20190;-59
2021/12/06 12:28:16;;;;;;;3.87;2.37;;;4.70;99.90;;;;;;5145173;27;20199;-61
2021/12/06 12:30:43;;;;;;;6.07;2.40;;;4.70;99.90;;;;;;5124972;28;20195;-61
2021/12/06 12:33:12;;;;;;;4.73;2.70;;;4.80;99.90;;;;;;5125798;28;20367;-61
2021/12/06 12:35:43;;;;;;;2.60;2.30;;;4.80;99.90;;;;;;5125622;28;20200;-61
2021/12/06 12:38:12;;;;;;;6.17;3.03;;;4.80;99.90;;;;;;5125297;28;20230;-61
2021/12/06 12:40:42;;;;;;;7.57;2.60;;;4.90;99.90;;;;;;5125663;28;20203;-61
2021/12/06 12:43:13;;;;;;;4.17;2.90;;;4.90;99.90;;;;;;5125544;28;20292;-61
2021/12/06 12:45:43;;;;;;;3.50;2.67;;;4.90;99.90;;;;;;5124867;28;20675;-61
2021/12/06 12:48:15;;;;;;;7.40;3.30;;;4.90;99.90;;;;;;5125680;28;20211;-61
2021/12/06 12:51:01;;;;;;;4.70;2.90;;;4.80;99.90;;;;;;5125117;28;20208;-61
2021/12/06 12:53:28;;;;;;;5.93;2.93;;;4.80;99.90;;;;;;5136326;27;20199;-61
2021/12/06 12:55:55;;;;;;;5.07;3.00;;;4.70;99.90;;;;;;5146134;27;20198;-61
2021/12/06 12:58:24;;;;;;;7.07;3.27;;;4.70;99.90;;;;;;5145819;27;20231;-61
2021/12/06 13:00:56;;;;;;;5.10;2.57;;;4.70;99.90;;;;;;5145915;27;20224;-61
2021/12/06 13:03:35;;;;;;;4.87;3.27;;;4.70;99.90;;;;;;5145401;28;20215;-61
2021/12/06 13:06:22;;;;;;;4.77;3.00;;;4.70;99.90;;;;;;5137380;28;20188;-61
2021/12/06 13:08:51;;;;;;;5.10;2.90;;;4.70;99.90;;;;;;5125047;28;20287;-61
2021/12/06 13:11:18;;;;;;;5.20;2.70;;;4.70;99.90;;;;;;5124899;28;20581;-61
2021/12/06 13:13:49;;;;;;;3.90;2.80;;;4.60;99.90;;;;;;5124863;28;20223;-61